Terminal Aerodrome Forecast
Issued by NWS

Home | Current Version | Previous Version | Text Only | Print | Product List | Glossary On
Versions: 1 2 3 4 5 6 7 8 9 10 11 12 13 14
000
FTUS46 KOTX 071742
TAFSFF
TAF
KSFF 071742Z 0718/0818 09005KT P6SM OVC080
     FM072200 09004KT P6SM SCT080 SCT250
     FM080500 VRB03KT P6SM SCT250
     FM081600 05005KT P6SM BKN200=

USA.gov is the U.S. government's official web portal to all federal, state and local government web resources and services.